sensor_id;sensor_type;location;lat;lon;timestamp;pressure;altitude;pressure_sealevel;temperature;humidity
64362;BME280;50685;53.346;-6.296;2022-09-09T00:01:06;100473.03;;;14.88;93.54
64362;BME280;50685;53.346;-6.296;2022-09-09T00:03:43;100475.72;;;14.88;93.45
64362;BME280;50685;53.346;-6.296;2022-09-09T00:14:35;100470.75;;;14.77;93.89
64362;BME280;50685;53.346;-6.296;2022-09-09T00:17:14;100471.75;;;14.73;94.14
64362;BME280;50685;53.346;-6.296;2022-09-09T00:22:37;100478.84;;;14.74;94.67
64362;BME280;50685;53.346;-6.296;2022-09-09T00:25:22;100474.50;;;14.72;94.09
64362;BME280;50685;53.346;-6.296;2022-09-09T00:27:58;100478.06;;;14.72;94.64
64362;BME280;50685;53.346;-6.296;2022-09-09T00:33:58;100475.56;;;14.66;95.12
64362;BME280;50685;53.346;-6.296;2022-09-09T00:36:31;100478.28;;;14.65;95.16
64362;BME280;50685;53.346;-6.296;2022-09-09T00:39:01;100473.84;;;14.65;95.45
64362;BME280;50685;53.346;-6.296;2022-09-09T00:53:56;100464.22;;;14.59;96.05
64362;BME280;50685;53.346;-6.296;2022-09-09T00:56:26;100456.22;;;14.59;96.28
64362;BME280;50685;53.346;-6.296;2022-09-09T01:04:55;100453.47;;;14.62;96.06
64362;BME280;50685;53.346;-6.296;2022-09-09T01:07:28;100455.16;;;14.63;95.98
64362;BME280;50685;53.346;-6.296;2022-09-09T01:10:36;100460.63;;;14.60;96.15
64362;BME280;50685;53.346;-6.296;2022-09-09T01:13:04;100458.94;;;14.58;96.22
64362;BME280;50685;53.346;-6.296;2022-09-09T01:16:03;100459.88;;;14.57;96.45
64362;BME280;50685;53.346;-6.296;2022-09-09T01:18:51;100459.00;;;14.56;96.33
64362;BME280;50685;53.346;-6.296;2022-09-09T01:29:44;100458.88;;;14.59;96.60
64362;BME280;50685;53.346;-6.296;2022-09-09T01:34:58;100457.06;;;14.60;96.81
64362;BME280;50685;53.346;-6.296;2022-09-09T01:37:23;100458.88;;;14.59;96.78
64362;BME280;50685;53.346;-6.296;2022-09-09T01:39:54;100453.59;;;14.58;96.88
64362;BME280;50685;53.346;-6.296;2022-09-09T01:42:19;100451.78;;;14.58;96.68
64362;BME280;50685;53.346;-6.296;2022-09-09T01:44:56;100450.06;;;14.57;96.89
64362;BME280;50685;53.346;-6.296;2022-09-09T01:47:25;100452.72;;;14.57;96.74
64362;BME280;50685;53.346;-6.296;2022-09-09T01:49:52;100457.19;;;14.57;97.05
64362;BME280;50685;53.346;-6.296;2022-09-09T01:52:22;100461.69;;;14.56;97.18
64362;BME280;50685;53.346;-6.296;2022-09-09T01:55:09;100458.13;;;14.56;97.04
64362;BME280;50685;53.346;-6.296;2022-09-09T02:00:11;100443.84;;;14.57;97.10
64362;BME280;50685;53.346;-6.296;2022-09-09T02:05:38;100449.25;;;14.55;97.10
64362;BME280;50685;53.346;-6.296;2022-09-09T02:10:57;100451.84;;;14.57;97.24
64362;BME280;50685;53.346;-6.296;2022-09-09T02:13:25;100444.84;;;14.54;96.92
64362;BME280;50685;53.346;-6.296;2022-09-09T02:16:07;100450.13;;;14.56;97.07
64362;BME280;50685;53.346;-6.296;2022-09-09T02:21:16;100445.69;;;14.55;97.15
64362;BME280;50685;53.346;-6.296;2022-09-09T02:23:59;100450.13;;;14.56;96.94
64362;BME280;50685;53.346;-6.296;2022-09-09T02:26:39;100454.53;;;14.57;97.16
64362;BME280;50685;53.346;-6.296;2022-09-09T02:29:22;100452.78;;;14.56;97.29
64362;BME280;50685;53.346;-6.296;2022-09-09T02:35:05;100454.53;;;14.57;97.33
64362;BME280;50685;53.346;-6.296;2022-09-09T02:37:38;100444.72;;;14.57;96.89
64362;BME280;50685;53.346;-6.296;2022-09-09T02:40:14;100449.03;;;14.61;96.96
64362;BME280;50685;53.346;-6.296;2022-09-09T02:43:06;100449.91;;;14.62;96.85
64362;BME280;50685;53.346;-6.296;2022-09-09T02:45:54;100448.13;;;14.62;96.64
64362;BME280;50685;53.346;-6.296;2022-09-09T02:51:52;100456.91;;;14.65;96.53
64362;BME280;50685;53.346;-6.296;2022-09-09T02:54:33;100445.38;;;14.64;96.51
64362;BME280;50685;53.346;-6.296;2022-09-09T02:57:21;100442.69;;;14.66;97.07
64362;BME280;50685;53.346;-6.296;2022-09-09T02:59:53;100440.97;;;14.63;96.79
64362;BME280;50685;53.346;-6.296;2022-09-09T03:02:31;100440.03;;;14.64;97.39
64362;BME280;50685;53.346;-6.296;2022-09-09T03:04:58;100432.13;;;14.61;97.00
64362;BME280;50685;53.346;-6.296;2022-09-09T03:07:38;100432.25;;;14.58;97.21
64362;BME280;50685;53.346;-6.296;2022-09-09T03:10:15;100434.09;;;14.56;96.91
64362;BME280;50685;53.346;-6.296;2022-09-09T03:12:59;100434.16;;;14.54;97.12
64362;BME280;50685;53.346;-6.296;2022-09-09T03:15:30;100429.81;;;14.52;96.97
64362;BME280;50685;53.346;-6.296;2022-09-09T03:17:56;100410.31;;;14.50;96.96
64362;BME280;50685;53.346;-6.296;2022-09-09T03:23:12;100423.56;;;14.53;96.49
64362;BME280;50685;53.346;-6.296;2022-09-09T03:25:45;100427.94;;;14.54;96.46
64362;BME280;50685;53.346;-6.296;2022-09-09T03:28:11;100421.69;;;14.55;96.65
64362;BME280;50685;53.346;-6.296;2022-09-09T03:30:40;100432.31;;;14.56;96.48
64362;BME280;50685;53.346;-6.296;2022-09-09T03:33:10;100437.66;;;14.56;96.32
64362;BME280;50685;53.346;-6.296;2022-09-09T03:35:46;100430.66;;;14.52;96.19
64362;BME280;50685;53.346;-6.296;2022-09-09T03:38:35;100430.66;;;14.52;96.74
64362;BME280;50685;53.346;-6.296;2022-09-09T03:41:00;100427.16;;;14.50;96.79
64362;BME280;50685;53.346;-6.296;2022-09-09T03:43:26;100423.69;;;14.48;97.09
64362;BME280;50685;53.346;-6.296;2022-09-09T03:45:52;100429.09;;;14.46;97.23
64362;BME280;50685;53.346;-6.296;2022-09-09T03:48:18;100426.47;;;14.45;97.55
64362;BME280;50685;53.346;-6.296;2022-09-09T03:50:55;100431.03;;;14.41;97.59
64362;BME280;50685;53.346;-6.296;2022-09-09T03:53:25;100428.50;;;14.38;97.82
64362;BME280;50685;53.346;-6.296;2022-09-09T03:55:54;100432.94;;;14.38;97.77
64362;BME280;50685;53.346;-6.296;2022-09-09T04:01:10;100442.03;;;14.32;98.15
64362;BME280;50685;53.346;-6.296;2022-09-09T04:03:35;100425.13;;;14.33;98.03
64362;BME280;50685;53.346;-6.296;2022-09-09T04:06:04;100440.22;;;14.33;98.57
64362;BME280;50685;53.346;-6.296;2022-09-09T04:08:44;100435.78;;;14.33;98.30
64362;BME280;50685;53.346;-6.296;2022-09-09T04:11:10;100426.09;;;14.30;98.05
64362;BME280;50685;53.346;-6.296;2022-09-09T04:13:56;100439.47;;;14.29;98.00
64362;BME280;50685;53.346;-6.296;2022-09-09T04:16:29;100433.34;;;14.27;98.24
64362;BME280;50685;53.346;-6.296;2022-09-09T04:19:03;100443.03;;;14.28;98.20
64362;BME280;50685;53.346;-6.296;2022-09-09T04:21:29;100439.59;;;14.26;98.26
64362;BME280;50685;53.346;-6.296;2022-09-09T04:23:55;100436.00;;;14.27;98.57
64362;BME280;50685;53.346;-6.296;2022-09-09T04:26:25;100448.50;;;14.25;98.62
64362;BME280;50685;53.346;-6.296;2022-09-09T04:28:50;100442.28;;;14.24;98.61
64362;BME280;50685;53.346;-6.296;2022-09-09T04:34:02;100453.91;;;14.23;98.75
64362;BME280;50685;53.346;-6.296;2022-09-09T04:36:30;100455.63;;;14.24;99.13
64362;BME280;50685;53.346;-6.296;2022-09-09T04:38:59;100449.41;;;14.24;99.26
64362;BME280;50685;53.346;-6.296;2022-09-09T04:41:24;100452.94;;;14.24;99.16
64362;BME280;50685;53.346;-6.296;2022-09-09T04:43:54;100446.75;;;14.24;99.12
64362;BME280;50685;53.346;-6.296;2022-09-09T04:46:25;100443.31;;;14.20;98.88
64362;BME280;50685;53.346;-6.296;2022-09-09T04:48:53;100445.94;;;14.22;99.20
64362;BME280;50685;53.346;-6.296;2022-09-09T04:51:18;100447.81;;;14.18;99.01
64362;BME280;50685;53.346;-6.296;2022-09-09T04:53:44;100451.44;;;14.17;99.24
64362;BME280;50685;53.346;-6.296;2022-09-09T04:56:37;100451.38;;;14.19;99.26
64362;BME280;50685;53.346;-6.296;2022-09-09T04:59:27;100451.47;;;14.16;99.02
64362;BME280;50685;53.346;-6.296;2022-09-09T05:01:52;100448.81;;;14.16;99.18
64362;BME280;50685;53.346;-6.296;2022-09-09T05:04:20;100454.13;;;14.16;99.46
64362;BME280;50685;53.346;-6.296;2022-09-09T05:06:49;100442.66;;;14.13;99.41
64362;BME280;50685;53.346;-6.296;2022-09-09T05:09:15;100451.53;;;14.14;99.31
64362;BME280;50685;53.346;-6.296;2022-09-09T05:11:42;100450.53;;;14.17;99.40
64362;BME280;50685;53.346;-6.296;2022-09-09T05:14:07;100452.41;;;14.14;99.27
64362;BME280;50685;53.346;-6.296;2022-09-09T05:16:32;100453.28;;;14.15;99.41
64362;BME280;50685;53.346;-6.296;2022-09-09T05:19:04;100461.22;;;14.17;99.49
64362;BME280;50685;53.346;-6.296;2022-09-09T05:21:29;100460.28;;;14.18;99.43
64362;BME280;50685;53.346;-6.296;2022-09-09T05:30:03;100457.53;;;14.21;98.90
64362;BME280;50685;53.346;-6.296;2022-09-09T05:32:35;100454.97;;;14.18;98.85
64362;BME280;50685;53.346;-6.296;2022-09-09T05:35:18;100461.13;;;14.20;98.86
64362;BME280;50685;53.346;-6.296;2022-09-09T05:37:54;100461.13;;;14.20;98.96
64362;BME280;50685;53.346;-6.296;2022-09-09T05:40:40;100461.06;;;14.21;98.96
64362;BME280;50685;53.346;-6.296;2022-09-09T05:43:12;100466.34;;;14.23;98.93
64362;BME280;50685;53.346;-6.296;2022-09-09T05:45:37;100469.91;;;14.23;98.75
64362;BME280;50685;53.346;-6.296;2022-09-09T05:50:56;100467.25;;;14.22;99.19
64362;BME280;50685;53.346;-6.296;2022-09-09T06:09:50;100493.00;;;14.23;98.81
64362;BME280;50685;53.346;-6.296;2022-09-09T06:12:16;100502.69;;;14.27;98.93
64362;BME280;50685;53.346;-6.296;2022-09-09T06:14:41;100493.72;;;14.29;98.67
64362;BME280;50685;53.346;-6.296;2022-09-09T06:17:07;100501.66;;;14.31;98.15
64362;BME280;50685;53.346;-6.296;2022-09-09T06:19:32;100496.19;;;14.34;98.18
64362;BME280;50685;53.346;-6.296;2022-09-09T06:21:57;100505.94;;;14.35;98.20
64362;BME280;50685;53.346;-6.296;2022-09-09T06:24:23;100506.69;;;14.40;98.25
64362;BME280;50685;53.346;-6.296;2022-09-09T06:26:48;100506.69;;;14.40;97.56
64362;BME280;50685;53.346;-6.296;2022-09-09T06:29:14;100515.44;;;14.44;97.56
64362;BME280;50685;53.346;-6.296;2022-09-09T06:31:39;100513.59;;;14.46;97.51
64362;BME280;50685;53.346;-6.296;2022-09-09T06:34:07;100519.72;;;14.50;97.33
64362;BME280;50685;53.346;-6.296;2022-09-09T06:36:33;100514.28;;;14.53;97.22
64362;BME280;50685;53.346;-6.296;2022-09-09T06:38:59;100525.75;;;14.55;97.62
64362;BME280;50685;53.346;-6.296;2022-09-09T06:41:25;100529.31;;;14.55;97.49
64362;BME280;50685;53.346;-6.296;2022-09-09T06:43:51;100528.34;;;14.58;97.54
64362;BME280;50685;53.346;-6.296;2022-09-09T06:46:18;100537.97;;;14.62;97.31
64362;BME280;50685;53.346;-6.296;2022-09-09T06:48:44;100536.13;;;14.64;97.12
64362;BME280;50685;53.346;-6.296;2022-09-09T06:51:16;100536.97;;;14.66;97.13
64362;BME280;50685;53.346;-6.296;2022-09-09T06:53:43;100538.63;;;14.70;96.55
64362;BME280;50685;53.346;-6.296;2022-09-09T06:58:34;100539.41;;;14.74;96.66
64362;BME280;50685;53.346;-6.296;2022-09-09T07:01:03;100547.28;;;14.77;96.51
64362;BME280;50685;53.346;-6.296;2022-09-09T07:03:29;100552.59;;;14.78;96.21
64362;BME280;50685;53.346;-6.296;2022-09-09T07:08:29;100555.13;;;14.82;96.40
64362;BME280;50685;53.346;-6.296;2022-09-09T07:11:01;100566.53;;;14.87;96.18
64362;BME280;50685;53.346;-6.296;2022-09-09T07:13:27;100561.91;;;14.92;96.19
64362;BME280;50685;53.346;-6.296;2022-09-09T07:15:52;100562.63;;;14.97;95.62
64362;BME280;50685;53.346;-6.296;2022-09-09T07:18:18;100573.13;;;15.02;95.44
64362;BME280;50685;53.346;-6.296;2022-09-09T07:20:52;100582.88;;;15.04;94.88
64362;BME280;50685;53.346;-6.296;2022-09-09T07:23:17;100580.06;;;15.07;95.11
64362;BME280;50685;53.346;-6.296;2022-09-09T07:25:46;100581.59;;;15.15;95.98
64362;BME280;50685;53.346;-6.296;2022-09-09T07:28:12;100595.03;;;15.12;95.17
64362;BME280;50685;53.346;-6.296;2022-09-09T07:30:38;100592.34;;;15.13;94.92
64362;BME280;50685;53.346;-6.296;2022-09-09T07:33:06;100597.47;;;15.19;95.38
64362;BME280;50685;53.346;-6.296;2022-09-09T07:35:32;100597.31;;;15.24;96.28
64362;BME280;50685;53.346;-6.296;2022-09-09T07:37:57;100604.44;;;15.23;94.73
64362;BME280;50685;53.346;-6.296;2022-09-09T07:40:23;100602.66;;;15.24;94.74
64362;BME280;50685;53.346;-6.296;2022-09-09T07:42:49;100607.03;;;15.26;94.79
64362;BME280;50685;53.346;-6.296;2022-09-09T07:45:14;100612.31;;;15.28;94.17
64362;BME280;50685;53.346;-6.296;2022-09-09T07:47:40;100613.91;;;15.34;94.66
64362;BME280;50685;53.346;-6.296;2022-09-09T07:50:07;100616.38;;;15.38;94.04
64362;BME280;50685;53.346;-6.296;2022-09-09T07:52:34;100612.72;;;15.41;93.31
64362;BME280;50685;53.346;-6.296;2022-09-09T07:55:02;100615.22;;;15.46;93.76
64362;BME280;50685;53.346;-6.296;2022-09-09T07:57:28;100611.53;;;15.50;93.28
64362;BME280;50685;53.346;-6.296;2022-09-09T07:59:55;100624.78;;;15.53;92.27
64362;BME280;50685;53.346;-6.296;2022-09-09T08:02:21;100633.25;;;15.66;92.53
64362;BME280;50685;53.346;-6.296;2022-09-09T08:04:47;100634.63;;;16.01;93.16
64362;BME280;50685;53.346;-6.296;2022-09-09T08:07:13;100638.41;;;16.42;92.01
64362;BME280;50685;53.346;-6.296;2022-09-09T08:09:38;100644.00;;;16.80;89.92
64362;BME280;50685;53.346;-6.296;2022-09-09T08:12:04;100643.09;;;17.24;87.10
64362;BME280;50685;53.346;-6.296;2022-09-09T08:14:32;100656.72;;;17.60;85.44
64362;BME280;50685;53.346;-6.296;2022-09-09T08:16:57;100655.47;;;17.88;83.69
64362;BME280;50685;53.346;-6.296;2022-09-09T08:19:23;100651.00;;;18.08;80.94
64362;BME280;50685;53.346;-6.296;2022-09-09T08:21:48;100660.53;;;18.15;81.29
64362;BME280;50685;53.346;-6.296;2022-09-09T08:24:14;100656.81;;;18.18;82.08
64362;BME280;50685;53.346;-6.296;2022-09-09T08:26:44;100661.34;;;18.17;81.63
64362;BME280;50685;53.346;-6.296;2022-09-09T08:29:10;100662.13;;;18.19;79.55
64362;BME280;50685;53.346;-6.296;2022-09-09T08:31:41;100667.50;;;18.38;80.46
64362;BME280;50685;53.346;-6.296;2022-09-09T08:34:07;100672.22;;;18.33;80.34
64362;BME280;50685;53.346;-6.296;2022-09-09T08:36:34;100682.34;;;18.07;79.45
64362;BME280;50685;53.346;-6.296;2022-09-09T08:39:00;100682.53;;;17.63;78.87
64362;BME280;50685;53.346;-6.296;2022-09-09T08:41:40;100688.22;;;17.55;80.96
64362;BME280;50685;53.346;-6.296;2022-09-09T08:44:23;100687.03;;;17.42;80.53
64362;BME280;50685;53.346;-6.296;2022-09-09T08:49:32;100688.47;;;17.28;81.23
64362;BME280;50685;53.346;-6.296;2022-09-09T08:52:03;100691.84;;;17.33;81.70
64362;BME280;50685;53.346;-6.296;2022-09-09T08:54:35;100697.69;;;17.43;83.69
64362;BME280;50685;53.346;-6.296;2022-09-09T08:57:02;100699.00;;;17.54;80.35
64362;BME280;50685;53.346;-6.296;2022-09-09T08:59:28;100704.28;;;17.76;81.90
64362;BME280;50685;53.346;-6.296;2022-09-09T09:02:02;100710.13;;;17.86;80.52
64362;BME280;50685;53.346;-6.296;2022-09-09T09:12:20;100723.31;;;17.71;84.91
64362;BME280;50685;53.346;-6.296;2022-09-09T09:14:47;100738.84;;;17.63;83.15
64362;BME280;50685;53.346;-6.296;2022-09-09T09:17:14;100734.84;;;17.53;81.22
64362;BME280;50685;53.346;-6.296;2022-09-09T09:19:40;100742.44;;;17.41;81.48
64362;BME280;50685;53.346;-6.296;2022-09-09T09:22:10;100739.97;;;17.37;82.89
64362;BME280;50685;53.346;-6.296;2022-09-09T09:27:15;100749.06;;;17.32;81.55
64362;BME280;50685;53.346;-6.296;2022-09-09T09:29:41;100756.00;;;17.38;81.33
64362;BME280;50685;53.346;-6.296;2022-09-09T09:32:10;100752.91;;;17.47;84.48
64362;BME280;50685;53.346;-6.296;2022-09-09T09:34:37;100755.28;;;17.55;81.75
64362;BME280;50685;53.346;-6.296;2022-09-09T09:37:07;100755.88;;;17.62;81.12
64362;BME280;50685;53.346;-6.296;2022-09-09T09:39:37;100756.63;;;17.65;79.35
64362;BME280;50685;53.346;-6.296;2022-09-09T09:42:15;100767.34;;;17.65;79.37
64362;BME280;50685;53.346;-6.296;2022-09-09T09:44:42;100765.94;;;17.57;78.20
64362;BME280;50685;53.346;-6.296;2022-09-09T09:47:12;100774.78;;;17.59;78.70
64362;BME280;50685;53.346;-6.296;2022-09-09T09:50:02;100781.69;;;17.64;79.75
64362;BME280;50685;53.346;-6.296;2022-09-09T09:52:29;100777.97;;;17.69;80.20
64362;BME280;50685;53.346;-6.296;2022-09-09T09:54:58;100792.41;;;17.64;79.06
64362;BME280;50685;53.346;-6.296;2022-09-09T09:57:28;100791.75;;;17.59;79.23
64362;BME280;50685;53.346;-6.296;2022-09-09T10:02:47;100795.03;;;17.66;79.35
64362;BME280;50685;53.346;-6.296;2022-09-09T10:05:14;100795.38;;;17.79;79.18
64362;BME280;50685;53.346;-6.296;2022-09-09T10:07:39;100798.19;;;17.98;80.17
64362;BME280;50685;53.346;-6.296;2022-09-09T10:10:05;100802.66;;;18.18;80.66
64362;BME280;50685;53.346;-6.296;2022-09-09T10:12:47;100810.53;;;18.42;81.75
64362;BME280;50685;53.346;-6.296;2022-09-09T10:18:11;100800.75;;;18.41;75.46
64362;BME280;50685;53.346;-6.296;2022-09-09T10:23:38;100804.59;;;18.35;75.19
64362;BME280;50685;53.346;-6.296;2022-09-09T10:36:23;100820.16;;;18.67;73.97
64362;BME280;50685;53.346;-6.296;2022-09-09T10:38:59;100817.34;;;18.70;73.56
64362;BME280;50685;53.346;-6.296;2022-09-09T10:41:45;100821.63;;;18.74;73.31
64362;BME280;50685;53.346;-6.296;2022-09-09T10:52:05;100834.16;;;19.32;73.45
64362;BME280;50685;53.346;-6.296;2022-09-09T10:59:50;100832.69;;;19.62;70.08
64362;BME280;50685;53.346;-6.296;2022-09-09T11:07:44;100842.97;;;19.34;70.32
64362;BME280;50685;53.346;-6.296;2022-09-09T11:13:35;100849.34;;;19.14;71.00
64362;BME280;50685;53.346;-6.296;2022-09-09T11:21:47;100862.41;;;19.22;72.18
64362;BME280;50685;53.346;-6.296;2022-09-09T11:24:29;100856.97;;;19.23;69.85
64362;BME280;50685;53.346;-6.296;2022-09-09T11:27:13;100861.38;;;19.24;70.43
64362;BME280;50685;53.346;-6.296;2022-09-09T11:29:52;100862.84;;;19.32;71.84
64362;BME280;50685;53.346;-6.296;2022-09-09T11:32:36;100860.66;;;19.40;71.93
64362;BME280;50685;53.346;-6.296;2022-09-09T11:38:24;100871.97;;;19.47;70.66
64362;BME280;50685;53.346;-6.296;2022-09-09T11:43:25;100862.59;;;19.55;71.29
64362;BME280;50685;53.346;-6.296;2022-09-09T11:45:53;100880.31;;;19.59;71.79
64362;BME280;50685;53.346;-6.296;2022-09-09T11:51:13;100880.41;;;19.58;71.25
64362;BME280;50685;53.346;-6.296;2022-09-09T11:56:33;100873.84;;;19.64;72.47
64362;BME280;50685;53.346;-6.296;2022-09-09T11:59:06;100875.03;;;19.58;71.50
64362;BME280;50685;53.346;-6.296;2022-09-09T12:01:38;100880.31;;;19.59;70.55
64362;BME280;50685;53.346;-6.296;2022-09-09T12:04:12;100880.31;;;19.59;72.06
64362;BME280;50685;53.346;-6.296;2022-09-09T12:06:46;100886.66;;;19.58;72.01
64362;BME280;50685;53.346;-6.296;2022-09-09T12:09:29;100880.00;;;19.48;72.61
64362;BME280;50685;53.346;-6.296;2022-09-09T12:14:42;100885.94;;;19.55;71.93
64362;BME280;50685;53.346;-6.296;2022-09-09T12:19:39;100877.47;;;19.63;71.27
64362;BME280;50685;53.346;-6.296;2022-09-09T12:22:07;100882.41;;;19.72;71.81
64362;BME280;50685;53.346;-6.296;2022-09-09T12:32:10;100902.28;;;19.69;69.99
64362;BME280;50685;53.346;-6.296;2022-09-09T12:34:38;100905.25;;;19.63;68.35
64362;BME280;50685;53.346;-6.296;2022-09-09T12:37:06;100906.72;;;19.70;72.28
64362;BME280;50685;53.346;-6.296;2022-09-09T12:39:38;100907.72;;;19.68;70.18
64362;BME280;50685;53.346;-6.296;2022-09-09T12:42:20;100913.97;;;19.68;71.20
64362;BME280;50685;53.346;-6.296;2022-09-09T12:44:56;100916.97;;;19.62;70.82
64362;BME280;50685;53.346;-6.296;2022-09-09T12:47:23;100913.72;;;19.55;68.58
64362;BME280;50685;53.346;-6.296;2022-09-09T12:49:50;100911.44;;;19.65;70.12
64362;BME280;50685;53.346;-6.296;2022-09-09T12:52:27;100910.47;;;19.85;70.06
64362;BME280;50685;53.346;-6.296;2022-09-09T12:55:02;100913.50;;;20.14;67.75
64362;BME280;50685;53.346;-6.296;2022-09-09T12:57:38;100909.00;;;20.32;64.53
64362;BME280;50685;53.346;-6.296;2022-09-09T13:00:05;100912.94;;;20.60;67.89
64362;BME280;50685;53.346;-6.296;2022-09-09T13:02:30;100925.91;;;20.69;66.35
64362;BME280;50685;53.346;-6.296;2022-09-09T13:05:05;100928.69;;;20.68;68.60
64362;BME280;50685;53.346;-6.296;2022-09-09T13:07:30;100933.47;;;20.63;70.12
64362;BME280;50685;53.346;-6.296;2022-09-09T13:09:56;100928.66;;;20.52;65.83
64362;BME280;50685;53.346;-6.296;2022-09-09T13:12:22;100934.25;;;20.47;67.99
64362;BME280;50685;53.346;-6.296;2022-09-09T13:14:53;100930.94;;;20.42;66.46
64362;BME280;50685;53.346;-6.296;2022-09-09T13:17:23;100929.69;;;20.32;65.60
64362;BME280;50685;53.346;-6.296;2022-09-09T13:19:48;100933.78;;;20.21;67.18
64362;BME280;50685;53.346;-6.296;2022-09-09T13:22:37;100936.16;;;20.28;67.14
64362;BME280;50685;53.346;-6.296;2022-09-09T13:25:06;100940.78;;;20.43;66.11
64362;BME280;50685;53.346;-6.296;2022-09-09T13:27:50;100942.66;;;20.41;67.60
64362;BME280;50685;53.346;-6.296;2022-09-09T13:32:47;100938.63;;;20.50;67.20
64362;BME280;50685;53.346;-6.296;2022-09-09T13:35:23;100948.06;;;20.41;64.99
64362;BME280;50685;53.346;-6.296;2022-09-09T13:37:49;100955.03;;;20.28;62.88
64362;BME280;50685;53.346;-6.296;2022-09-09T13:40:17;100957.47;;;20.15;66.12
64362;BME280;50685;53.346;-6.296;2022-09-09T13:42:44;100958.97;;;20.03;66.32
64362;BME280;50685;53.346;-6.296;2022-09-09T13:45:19;100959.13;;;20.00;68.11
64362;BME280;50685;53.346;-6.296;2022-09-09T13:47:50;100968.75;;;19.86;66.93
64362;BME280;50685;53.346;-6.296;2022-09-09T13:50:24;100980.09;;;19.74;66.82
64362;BME280;50685;53.346;-6.296;2022-09-09T13:52:52;100977.41;;;19.55;67.13
64362;BME280;50685;53.346;-6.296;2022-09-09T14:01:54;100980.28;;;19.50;70.56
64362;BME280;50685;53.346;-6.296;2022-09-09T14:04:19;100983.81;;;19.52;71.83
64362;BME280;50685;53.346;-6.296;2022-09-09T14:06:47;100978.72;;;19.46;70.99
64362;BME280;50685;53.346;-6.296;2022-09-09T14:09:15;100990.56;;;19.42;71.48
64362;BME280;50685;53.346;-6.296;2022-09-09T14:11:42;100988.66;;;19.44;72.24
64362;BME280;50685;53.346;-6.296;2022-09-09T14:14:12;100987.28;;;19.35;71.68
64362;BME280;50685;53.346;-6.296;2022-09-09T14:16:40;100990.69;;;19.39;72.29
64362;BME280;50685;53.346;-6.296;2022-09-09T14:26:57;100999.81;;;18.97;75.71
64362;BME280;50685;53.346;-6.296;2022-09-09T14:29:23;100998.41;;;18.86;75.72
64362;BME280;50685;53.346;-6.296;2022-09-09T14:35:09;101003.22;;;19.00;75.62
64362;BME280;50685;53.346;-6.296;2022-09-09T14:37:43;101012.41;;;18.94;74.54
